Time;durP1;ratioP1;P1;durP2;ratioP2;P2;SDS_P1;SDS_P2;PMS_P1;PMS_P2;Temp;Humidity;BMP_temperature;BMP_pressure;BME280_temperature;BME280_humidity;BME280_pressure;Samples;Min_cycle;Max_cycle;Signal;HPM_P1;HPM_P2
2022/09/09 00:02:08;;;;;;;0.10;0.10;;;14.00;99.90;;;;;;5069267;28;20439;-91
2022/09/09 00:04:36;;;;;;;0.10;0.10;;;14.00;99.90;;;;;;5064026;28;20863;-92
2022/09/09 00:07:23;;;;;;;0.10;0.10;;;14.00;99.90;;;;;;5067079;28;20443;-90
2022/09/09 00:10:17;;;;;;;0.10;0.10;;;14.00;99.90;;;;;;5068475;28;20459;-90
2022/09/09 00:13:16;;;;;;;0.10;0.10;;;14.10;99.90;;;;;;5063767;28;20448;-91
2022/09/09 00:16:08;;;;;;;0.10;0.10;;;14.00;99.90;;;;;;5063021;28;20459;-91
2022/09/09 00:19:00;;;;;;;0.10;0.10;;;14.00;99.90;;;;;;5066041;28;20484;-90
2022/09/09 00:21:43;;;;;;;0.10;0.10;;;14.00;99.90;;;;;;5050202;28;20433;-91
2022/09/09 00:24:25;;;;;;;0.10;0.10;;;14.00;99.90;;;;;;5069112;28;20443;-90
2022/09/09 00:26:57;;;;;;;0.10;0.10;;;14.00;99.90;;;;;;5069594;28;20436;-91
2022/09/09 00:29:35;;;;;;;0.10;0.10;;;14.10;99.90;;;;;;5062165;28;20475;-90
2022/09/09 00:32:14;;;;;;;0.10;0.10;;;14.00;99.90;;;;;;5069304;28;20444;-90
2022/09/09 00:34:52;;;;;;;0.10;0.10;;;14.00;99.90;;;;;;5049838;28;20940;-91
2022/09/09 00:37:21;;;;;;;0.10;0.10;;;14.10;99.90;;;;;;5058393;28;20483;-91
2022/09/09 00:39:48;;;;;;;0.10;0.10;;;14.10;99.90;;;;;;5060085;28;20436;-91
2022/09/09 00:42:18;;;;;;;0.10;0.10;;;14.00;99.90;;;;;;5065084;28;21067;-90
2022/09/09 00:45:14;;;;;;;0.10;0.10;;;14.00;99.90;;;;;;5051075;28;20472;-90
2022/09/09 00:47:52;;;;;;;0.10;0.10;;;14.00;99.90;;;;;;5067393;28;20472;-91
2022/09/09 00:50:43;;;;;;;0.10;0.10;;;14.00;99.90;;;;;;5069179;28;20424;-88
2022/09/09 00:53:18;;;;;;;0.10;0.10;;;14.00;99.90;;;;;;5050459;28;20406;-89
2022/09/09 00:55:58;;;;;;;0.10;0.10;;;14.00;99.90;;;;;;5054779;28;20431;-88
2022/09/09 00:58:24;;;;;;;0.10;0.10;;;14.00;99.90;;;;;;5067856;28;20994;-88
2022/09/09 01:00:57;;;;;;;0.10;0.10;;;14.10;99.90;;;;;;5067162;28;20439;-88
2022/09/09 01:03:36;;;;;;;0.10;0.10;;;14.10;99.90;;;;;;5068083;28;20957;-89
2022/09/09 01:06:24;;;;;;;0.10;0.10;;;14.10;99.90;;;;;;5068431;28;20452;-87
2022/09/09 01:09:15;;;;;;;0.10;0.10;;;14.10;99.90;;;;;;5053895;28;20498;-87
2022/09/09 01:12:01;;;;;;;0.10;0.10;;;14.10;99.90;;;;;;5056138;28;20432;-88
2022/09/09 01:14:35;;;;;;;0.10;0.10;;;14.10;99.90;;;;;;5050158;28;20425;-87
2022/09/09 01:17:22;;;;;;;0.10;0.10;;;14.10;99.90;;;;;;5060911;28;20506;-90
2022/09/09 01:20:10;;;;;;;0.10;0.10;;;14.00;99.90;;;;;;5050307;28;20447;-88
2022/09/09 01:23:03;;;;;;;0.10;0.10;;;14.10;99.90;;;;;;5065839;28;20978;-90
2022/09/09 01:25:43;;;;;;;0.10;0.10;;;14.10;99.90;;;;;;5072165;28;20448;-90
2022/09/09 01:28:19;;;;;;;0.10;0.10;;;14.10;99.90;;;;;;5070285;28;20442;-89
2022/09/09 01:30:44;;;;;;;0.10;0.10;;;14.10;99.90;;;;;;5067050;28;20551;-89
2022/09/09 01:33:15;;;;;;;0.10;0.10;;;14.10;99.90;;;;;;5062260;28;20625;-91
2022/09/09 01:36:25;;;;;;;0.10;0.10;;;14.10;99.90;;;;;;5073333;28;20268;-88
2022/09/09 01:38:52;;;;;;;0.10;0.10;;;14.10;99.90;;;;;;5066482;28;20535;-90
2022/09/09 01:41:18;;;;;;;0.10;0.10;;;14.10;99.90;;;;;;5074285;28;20891;-90
2022/09/09 01:43:43;;;;;;;0.10;0.10;;;14.10;99.90;;;;;;5071690;28;20447;-90
2022/09/09 01:46:10;;;;;;;0.10;0.10;;;14.10;99.90;;;;;;5068300;28;20189;-90
2022/09/09 01:48:36;;;;;;;0.10;0.10;;;14.10;99.90;;;;;;5070135;28;20246;-90
2022/09/09 01:51:02;;;;;;;0.10;0.10;;;14.10;99.90;;;;;;5073548;28;20428;-90
2022/09/09 01:53:27;;;;;;;0.10;0.10;;;14.10;99.90;;;;;;5070475;28;20252;-89
2022/09/09 01:56:04;;;;;;;0.10;0.10;;;14.10;99.90;;;;;;5072467;28;20189;-89
2022/09/09 01:58:47;;;;;;;0.10;0.10;;;14.10;99.90;;;;;;5069620;28;20225;-87
2022/09/09 02:01:37;;;;;;;0.10;0.10;;;14.10;99.90;;;;;;5060384;28;20445;-87
2022/09/09 02:04:26;;;;;;;0.10;0.10;;;14.10;99.90;;;;;;5053556;28;20948;-89
2022/09/09 02:06:56;;;;;;;0.10;0.10;;;14.10;99.90;;;;;;5063547;28;20498;-87
2022/09/09 02:09:24;;;;;;;0.10;0.10;;;14.10;99.90;;;;;;5072291;28;20455;-89
2022/09/09 02:12:01;;;;;;;0.10;0.10;;;14.10;99.90;;;;;;5072309;28;20531;-89
2022/09/09 02:14:35;;;;;;;0.10;0.10;;;14.10;99.90;;;;;;5069251;28;20534;-88
2022/09/09 02:17:10;;;;;;;0.10;0.10;;;14.10;99.90;;;;;;5070216;28;20479;-89
2022/09/09 02:19:41;;;;;;;0.10;0.10;;;14.10;99.90;;;;;;5072288;28;20534;-90
2022/09/09 02:22:07;;;;;;;0.10;0.10;;;14.10;99.90;;;;;;5071791;28;20444;-91
2022/09/09 02:24:37;;;;;;;0.10;0.10;;;14.10;99.90;;;;;;5071857;28;20442;-89
2022/09/09 02:27:08;;;;;;;0.10;0.10;;;14.10;99.90;;;;;;5070684;28;20186;-87
2022/09/09 02:29:38;;;;;;;0.10;0.10;;;14.10;99.90;;;;;;5057049;28;20886;-90
2022/09/09 02:32:08;;;;;;;0.10;0.10;;;14.10;99.90;;;;;;5069028;28;20828;-88
2022/09/09 02:34:39;;;;;;;0.10;0.10;;;14.10;99.90;;;;;;5071197;28;20885;-89
2022/09/09 02:37:07;;;;;;;0.10;0.10;;;14.10;99.90;;;;;;5071000;28;20487;-90
2022/09/09 02:39:33;;;;;;;0.10;0.10;;;14.10;99.90;;;;;;5070508;28;20543;-90
2022/09/09 02:41:59;;;;;;;0.10;0.10;;;14.10;99.90;;;;;;5069736;28;20516;-89
2022/09/09 02:44:25;;;;;;;0.10;0.10;;;14.10;99.90;;;;;;5070622;28;20664;-88
2022/09/09 02:47:22;;;;;;;0.10;0.10;;;14.10;99.90;;;;;;5070770;28;20447;-88
2022/09/09 02:50:08;;;;;;;0.10;0.10;;;14.10;99.90;;;;;;5050148;28;20658;-88
2022/09/09 02:53:11;;;;;;;0.10;0.10;;;14.10;99.90;;;;;;5058613;28;20440;-88
2022/09/09 02:55:45;;;;;;;0.10;0.10;;;14.10;99.90;;;;;;5067700;28;21219;-90
2022/09/09 02:58:16;;;;;;;0.10;0.10;;;14.00;99.90;;;;;;5070266;28;21010;-89
2022/09/09 03:00:45;;;;;;;0.10;0.10;;;14.10;99.90;;;;;;5086293;28;20501;-88
2022/09/09 03:03:10;;;;;;;0.10;0.10;;;14.00;99.90;;;;;;5071323;28;20456;-88
2022/09/09 03:05:36;;;;;;;0.10;0.10;;;14.00;99.90;;;;;;5066704;28;20437;-89
2022/09/09 03:08:03;;;;;;;0.10;0.10;;;14.00;99.90;;;;;;5062833;28;20207;-88
2022/09/09 03:10:29;;;;;;;0.10;0.10;;;14.00;99.90;;;;;;5070130;28;21030;-88
2022/09/09 03:12:55;;;;;;;0.10;0.10;;;14.00;99.90;;;;;;5070160;28;20539;-89
2022/09/09 03:15:20;;;;;;;0.10;0.10;;;14.00;99.90;;;;;;5069322;28;20261;-88
2022/09/09 03:17:46;;;;;;;0.10;0.10;;;14.00;99.90;;;;;;5068549;28;20480;-88
2022/09/09 03:20:12;;;;;;;0.10;0.10;;;13.90;99.90;;;;;;5069831;28;20178;-89
2022/09/09 03:22:38;;;;;;;0.10;0.10;;;14.00;99.90;;;;;;5067621;28;20512;-89
2022/09/09 03:25:03;;;;;;;0.10;0.10;;;14.00;99.90;;;;;;5069658;28;20266;-89
2022/09/09 03:27:29;;;;;;;0.10;0.10;;;14.00;99.90;;;;;;5068065;28;20590;-89
2022/09/09 03:29:55;;;;;;;0.10;0.10;;;14.00;99.90;;;;;;5068025;28;20283;-88
2022/09/09 03:32:22;;;;;;;0.10;0.10;;;14.00;99.90;;;;;;5068854;28;20444;-88
2022/09/09 03:34:49;;;;;;;0.10;0.10;;;14.00;99.90;;;;;;5070364;28;20170;-87
2022/09/09 03:37:15;;;;;;;0.20;0.20;;;14.00;99.90;;;;;;5064738;28;20536;-87
2022/09/09 03:39:41;;;;;;;0.10;0.10;;;14.00;99.90;;;;;;5062046;28;20452;-89
2022/09/09 03:42:06;;;;;;;0.10;0.10;;;13.90;99.90;;;;;;5070629;28;20440;-87
2022/09/09 03:44:32;;;;;;;0.10;0.10;;;14.00;99.90;;;;;;5055257;28;20672;-88
2022/09/09 03:47:00;;;;;;;0.20;0.20;;;14.00;99.90;;;;;;5068433;28;20189;-88
2022/09/09 03:49:28;;;;;;;0.10;0.10;;;14.00;99.90;;;;;;5069412;28;20730;-88
2022/09/09 03:51:54;;;;;;;0.10;0.10;;;14.00;99.90;;;;;;5070253;28;20801;-88
2022/09/09 03:54:20;;;;;;;0.10;0.10;;;13.90;99.90;;;;;;5063785;28;20446;-87
2022/09/09 03:56:45;;;;;;;0.10;0.10;;;13.90;99.90;;;;;;5066390;28;20853;-88
2022/09/09 03:59:11;;;;;;;0.10;0.10;;;13.80;99.90;;;;;;5059466;28;20305;-87
2022/09/09 04:01:36;;;;;;;0.10;0.10;;;13.80;99.90;;;;;;5069337;28;20551;-86
2022/09/09 04:04:02;;;;;;;0.10;0.10;;;13.80;99.90;;;;;;5069462;28;20272;-88
2022/09/09 04:06:28;;;;;;;0.10;0.10;;;13.80;99.90;;;;;;5069493;28;20189;-87
2022/09/09 04:08:55;;;;;;;0.10;0.10;;;13.80;99.90;;;;;;5069103;28;20554;-87
2022/09/09 04:11:21;;;;;;;0.10;0.10;;;13.80;99.90;;;;;;5069088;28;21271;-87
2022/09/09 04:13:49;;;;;;;0.10;0.10;;;13.80;99.90;;;;;;5066684;28;20479;-87
2022/09/09 04:16:14;;;;;;;0.10;0.10;;;13.80;99.90;;;;;;5067222;28;20239;-87
2022/09/09 04:18:40;;;;;;;0.10;0.10;;;13.80;99.90;;;;;;5069436;28;20484;-88
2022/09/09 04:21:07;;;;;;;0.10;0.10;;;13.80;99.90;;;;;;5067525;28;20548;-87
2022/09/09 04:23:34;;;;;;;0.10;0.10;;;13.80;99.90;;;;;;5068372;28;20181;-87
2022/09/09 04:26:01;;;;;;;0.10;0.10;;;13.80;99.90;;;;;;5068056;28;20507;-87
2022/09/09 04:28:29;;;;;;;0.10;0.10;;;13.80;99.90;;;;;;5064116;28;20440;-88
2022/09/09 04:30:56;;;;;;;0.20;0.20;;;13.70;99.90;;;;;;5069169;28;20494;-88
2022/09/09 04:33:25;;;;;;;0.10;0.10;;;13.70;99.90;;;;;;5070147;28;20428;-86
2022/09/09 04:35:53;;;;;;;0.10;0.10;;;13.80;99.90;;;;;;5068990;28;20444;-87
2022/09/09 04:38:19;;;;;;;0.10;0.10;;;13.80;99.90;;;;;;5068432;28;21037;-88
2022/09/09 04:40:48;;;;;;;0.20;0.20;;;13.80;99.90;;;;;;5066904;28;20436;-88
2022/09/09 04:43:14;;;;;;;0.10;0.10;;;13.70;99.90;;;;;;5085092;28;20195;-88
2022/09/09 04:45:40;;;;;;;0.10;0.10;;;13.80;99.90;;;;;;5067823;28;20889;-88
2022/09/09 04:48:07;;;;;;;0.10;0.10;;;13.80;99.90;;;;;;5068301;28;20990;-88
2022/09/09 04:50:33;;;;;;;0.10;0.10;;;13.80;99.90;;;;;;5064821;28;20736;-87
2022/09/09 04:53:04;;;;;;;0.10;0.10;;;13.80;99.90;;;;;;5067689;28;20448;-87
2022/09/09 04:55:31;;;;;;;0.10;0.10;;;13.80;99.90;;;;;;5066735;28;20436;-88
2022/09/09 04:57:57;;;;;;;0.10;0.10;;;13.80;99.90;;;;;;5058031;28;20483;-87
2022/09/09 05:00:23;;;;;;;0.10;0.10;;;13.80;99.90;;;;;;5067994;28;20932;-87
2022/09/09 05:02:48;;;;;;;0.10;0.10;;;13.80;99.90;;;;;;5069125;28;20519;-88
2022/09/09 05:05:14;;;;;;;0.20;0.20;;;13.80;99.90;;;;;;5068933;28;20999;-89
2022/09/09 05:07:39;;;;;;;0.10;0.10;;;13.80;99.90;;;;;;5067638;28;20188;-87
2022/09/09 05:10:05;;;;;;;0.10;0.10;;;13.80;99.90;;;;;;5067255;28;20182;-87
2022/09/09 05:12:31;;;;;;;0.20;0.20;;;13.80;99.90;;;;;;5066756;28;20182;-87
2022/09/09 05:14:57;;;;;;;0.20;0.20;;;13.80;99.90;;;;;;5068750;28;20205;-87
2022/09/09 05:17:23;;;;;;;0.10;0.10;;;13.80;99.90;;;;;;5060688;28;20487;-87
2022/09/09 05:19:49;;;;;;;0.10;0.10;;;13.80;99.90;;;;;;5068818;28;20192;-89
2022/09/09 05:22:20;;;;;;;0.10;0.10;;;13.80;99.90;;;;;;5069057;28;20440;-87
2022/09/09 05:24:45;;;;;;;0.10;0.10;;;13.80;99.90;;;;;;5050206;28;20236;-89
2022/09/09 05:27:12;;;;;;;0.10;0.10;;;13.80;99.90;;;;;;5060269;28;20998;-84
2022/09/09 05:29:37;;;;;;;0.10;0.10;;;13.80;99.90;;;;;;5064084;28;20230;-85
2022/09/09 05:32:04;;;;;;;0.10;0.10;;;13.90;99.90;;;;;;5061421;28;20498;-87
2022/09/09 05:34:29;;;;;;;0.10;0.10;;;13.90;99.90;;;;;;5062020;28;20182;-87
2022/09/09 05:36:55;;;;;;;0.20;0.20;;;13.80;99.90;;;;;;5068156;28;20880;-88
2022/09/09 05:39:20;;;;;;;0.10;0.10;;;13.80;99.90;;;;;;5067928;28;20642;-87
2022/09/09 05:41:46;;;;;;;0.10;0.10;;;13.90;99.90;;;;;;5066337;28;20216;-89
2022/09/09 05:44:11;;;;;;;0.10;0.10;;;13.90;99.90;;;;;;5068357;28;20279;-87
2022/09/09 05:46:37;;;;;;;0.10;0.10;;;13.90;99.90;;;;;;5067292;28;20286;-88
2022/09/09 05:49:05;;;;;;;0.10;0.10;;;13.90;99.90;;;;;;5069420;28;20189;-91
2022/09/09 05:51:31;;;;;;;0.10;0.10;;;13.90;99.90;;;;;;5066328;28;21014;-88
2022/09/09 05:53:59;;;;;;;0.10;0.10;;;13.90;99.90;;;;;;5068495;28;20420;-88
2022/09/09 05:56:27;;;;;;;0.10;0.10;;;13.90;99.90;;;;;;5061711;28;20478;-88
2022/09/09 05:58:54;;;;;;;0.10;0.10;;;13.90;99.90;;;;;;5067782;28;20935;-90
2022/09/09 06:01:22;;;;;;;0.10;0.10;;;13.90;99.90;;;;;;5068034;28;20501;-88
2022/09/09 06:03:49;;;;;;;0.10;0.10;;;13.90;99.90;;;;;;5068383;28;20451;-87
2022/09/09 06:06:17;;;;;;;0.10;0.10;;;13.90;99.90;;;;;;5068586;28;20451;-87
2022/09/09 06:08:45;;;;;;;0.10;0.10;;;13.90;99.90;;;;;;5067933;28;20493;-87
2022/09/09 06:11:23;;;;;;;0.10;0.10;;;13.90;99.90;;;;;;5067456;28;20448;-87
2022/09/09 06:13:51;;;;;;;0.10;0.10;;;14.00;99.90;;;;;;5071128;28;20490;-89
2022/09/09 06:16:18;;;;;;;0.10;0.10;;;14.00;99.90;;;;;;5072551;28;20493;-87
2022/09/09 06:18:44;;;;;;;0.10;0.10;;;14.00;99.90;;;;;;5062125;28;20516;-88
2022/09/09 06:21:21;;;;;;;0.10;0.10;;;14.00;99.90;;;;;;5067105;28;20501;-89
2022/09/09 06:23:48;;;;;;;0.10;0.10;;;14.10;99.90;;;;;;5062164;28;20444;-87
2022/09/09 06:26:19;;;;;;;0.10;0.10;;;14.10;99.90;;;;;;5067814;28;20444;-87
2022/09/09 06:28:52;;;;;;;0.10;0.10;;;14.10;99.90;;;;;;5071145;28;20948;-89
2022/09/09 06:31:22;;;;;;;0.10;0.10;;;14.20;99.90;;;;;;5066282;28;20467;-86
2022/09/09 06:33:52;;;;;;;0.10;0.10;;;14.20;99.90;;;;;;5070454;28;20431;-87
2022/09/09 06:36:19;;;;;;;0.10;0.10;;;14.20;99.90;;;;;;5067661;28;20424;-88
2022/09/09 06:38:45;;;;;;;0.20;0.20;;;14.20;99.90;;;;;;5072882;28;20475;-86
2022/09/09 06:41:13;;;;;;;0.10;0.10;;;14.20;99.90;;;;;;5068287;28;20520;-89
2022/09/09 06:43:39;;;;;;;0.10;0.10;;;14.10;99.90;;;;;;5070954;28;20443;-87
2022/09/09 06:46:16;;;;;;;0.10;0.10;;;14.10;99.90;;;;;;5070308;28;20435;-86
2022/09/09 06:48:44;;;;;;;0.10;0.10;;;14.10;99.90;;;;;;5069255;28;20443;-89
2022/09/09 06:51:23;;;;;;;0.10;0.10;;;14.10;99.90;;;;;;5053803;28;20453;-87
2022/09/09 06:53:53;;;;;;;0.10;0.10;;;14.20;99.90;;;;;;5070190;28;20440;-92
2022/09/09 06:56:28;;;;;;;0.10;0.10;;;14.20;99.90;;;;;;5071060;28;21090;-91
2022/09/09 06:58:54;;;;;;;0.10;0.10;;;14.30;99.90;;;;;;5069051;28;20460;-91
2022/09/09 07:01:23;;;;;;;0.10;0.10;;;14.30;99.90;;;;;;5069217;28;20475;-88
2022/09/09 07:03:54;;;;;;;0.10;0.10;;;14.40;99.90;;;;;;5067218;28;20502;-89
2022/09/09 07:06:25;;;;;;;0.10;0.10;;;14.40;99.90;;;;;;5070627;28;20432;-89
2022/09/09 07:08:56;;;;;;;0.10;0.10;;;14.40;99.90;;;;;;5067808;28;20948;-90
2022/09/09 07:11:26;;;;;;;0.10;0.10;;;14.50;99.90;;;;;;5073692;28;20449;-94
2022/09/09 07:13:52;;;;;;;0.10;0.10;;;14.60;99.90;;;;;;5063016;28;20448;-92
2022/09/09 07:16:20;;;;;;;0.10;0.10;;;14.70;99.90;;;;;;5067566;28;20471;-91
2022/09/09 07:18:46;;;;;;;0.10;0.10;;;14.80;99.90;;;;;;5065804;28;20399;-91
2022/09/09 07:21:13;;;;;;;0.10;0.10;;;14.80;99.90;;;;;;5070215;28;20436;-94
2022/09/09 07:23:40;;;;;;;0.10;0.10;;;14.90;99.90;;;;;;5066329;28;20447;-95
2022/09/09 07:26:10;;;;;;;0.10;0.10;;;15.10;99.90;;;;;;5072108;28;20436;-95
2022/09/09 07:28:36;;;;;;;0.10;0.10;;;15.10;99.90;;;;;;5065435;28;21252;-84
2022/09/09 07:31:03;;;;;;;0.10;0.10;;;15.10;99.90;;;;;;5058931;28;20483;-87
2022/09/09 07:33:33;;;;;;;0.10;0.10;;;15.10;99.90;;;;;;5059964;28;20714;-86
2022/09/09 07:36:06;;;;;;;0.10;0.10;;;15.10;99.90;;;;;;5068801;28;20450;-85
2022/09/09 07:38:37;;;;;;;0.10;0.10;;;15.10;99.90;;;;;;5067827;28;20487;-84
2022/09/09 07:41:05;;;;;;;0.10;0.10;;;15.20;99.90;;;;;;5067098;28;20440;-85
2022/09/09 07:43:31;;;;;;;0.10;0.10;;;15.30;99.90;;;;;;5070428;28;20436;-95
2022/09/09 07:46:01;;;;;;;0.10;0.10;;;15.40;99.90;;;;;;5064273;28;20534;-84
2022/09/09 07:48:27;;;;;;;0.10;0.10;;;15.50;99.90;;;;;;5068752;28;20240;-83
2022/09/09 07:50:52;;;;;;;0.10;0.10;;;15.50;99.90;;;;;;5067996;28;20474;-83
2022/09/09 07:53:19;;;;;;;0.10;0.10;;;15.40;99.90;;;;;;5064287;28;21008;-83
2022/09/09 07:55:45;;;;;;;0.10;0.10;;;15.40;99.90;;;;;;5068072;28;20174;-85
2022/09/09 07:58:10;;;;;;;0.10;0.10;;;15.60;99.90;;;;;;5069095;28;20479;-83
2022/09/09 08:00:36;;;;;;;0.10;0.10;;;15.80;99.90;;;;;;5064499;28;20185;-84
2022/09/09 08:03:01;;;;;;;0.10;0.10;;;16.10;99.90;;;;;;5060880;28;20186;-84
2022/09/09 08:05:27;;;;;;;0.10;0.10;;;16.30;99.90;;;;;;5066701;28;20186;-84
2022/09/09 08:07:52;;;;;;;0.10;0.10;;;16.30;99.90;;;;;;5067138;28;20193;-83
2022/09/09 08:10:18;;;;;;;0.10;0.10;;;16.20;99.90;;;;;;5068607;28;20941;-84
2022/09/09 08:12:44;;;;;;;0.10;0.10;;;16.40;99.90;;;;;;5067270;28;20209;-84
2022/09/09 08:15:11;;;;;;;0.10;0.10;;;16.50;99.90;;;;;;5068853;28;20269;-83
2022/09/09 08:17:37;;;;;;;0.10;0.10;;;16.50;99.90;;;;;;5066214;28;21044;-86
2022/09/09 08:20:06;;;;;;;0.10;0.10;;;16.60;99.90;;;;;;5067026;28;20432;-85
2022/09/09 08:22:34;;;;;;;0.10;0.10;;;16.70;99.90;;;;;;5065907;28;20465;-83
2022/09/09 08:25:00;;;;;;;0.10;0.10;;;16.80;99.90;;;;;;5054176;28;20445;-93
2022/09/09 08:27:25;;;;;;;0.10;0.10;;;16.90;99.90;;;;;;5070574;28;21231;-96
2022/09/09 08:29:51;;;;;;;0.10;0.10;;;17.00;99.90;;;;;;5071529;28;20487;-87
2022/09/09 08:32:18;;;;;;;0.10;0.10;;;17.10;99.90;;;;;;5069922;28;20189;-90
2022/09/09 08:34:44;;;;;;;0.10;0.10;;;17.40;99.90;;;;;;5058357;28;20186;-85
2022/09/09 08:37:09;;;;;;;0.10;0.10;;;17.70;99.90;;;;;;5067880;28;20537;-87
2022/09/09 08:39:35;;;;;;;0.10;0.10;;;17.80;99.90;;;;;;5066986;28;21024;-91
2022/09/09 08:42:22;;;;;;;0.10;0.10;;;18.00;99.90;;;;;;5070051;28;20209;-90
2022/09/09 08:45:22;;;;;;;0.10;0.10;;;18.30;99.90;;;;;;5068719;28;20203;-86
2022/09/09 08:48:14;;;;;;;0.10;0.10;;;18.30;99.90;;;;;;5066313;28;20805;-86
2022/09/09 08:50:41;;;;;;;0.10;0.10;;;18.10;99.90;;;;;;5065226;28;20872;-89
2022/09/09 08:53:31;;;;;;;0.10;0.10;;;17.60;99.90;;;;;;5063610;28;20527;-88
2022/09/09 08:55:59;;;;;;;0.10;0.10;;;17.30;99.90;;;;;;5070053;28;20420;-88
2022/09/09 08:58:30;;;;;;;0.10;0.10;;;17.20;99.90;;;;;;5068241;28;20506;-88
2022/09/09 09:01:36;;;;;;;0.10;0.10;;;17.00;99.90;;;;;;5068025;28;20424;-86
2022/09/09 09:04:39;;;;;;;0.10;0.10;;;17.00;99.90;;;;;;5055070;28;20490;-88
2022/09/09 09:07:36;;;;;;;0.10;0.10;;;17.00;99.90;;;;;;5060935;28;20978;-86
2022/09/09 09:10:12;;;;;;;0.10;0.10;;;17.00;99.90;;;;;;5033618;28;20955;-88
2022/09/09 09:12:44;;;;;;;0.10;0.10;;;17.00;99.90;;;;;;5067729;28;20536;-85
2022/09/09 09:15:23;;;;;;;0.10;0.10;;;17.00;99.90;;;;;;5066186;28;20472;-87
2022/09/09 09:17:49;;;;;;;0.10;0.10;;;16.90;99.90;;;;;;5073926;28;20840;-86
2022/09/09 09:20:17;;;;;;;0.10;0.10;;;17.00;99.90;;;;;;5069172;28;20999;-88
2022/09/09 09:22:51;;;;;;;0.10;0.10;;;17.40;99.90;;;;;;5060300;28;20453;-87
2022/09/09 09:25:18;;;;;;;0.10;0.10;;;17.90;99.90;;;;;;5060088;28;20867;-87
2022/09/09 09:27:57;;;;;;;0.10;0.10;;;18.20;99.90;;;;;;5048470;28;20440;-87
2022/09/09 09:30:29;;;;;;;0.10;0.10;;;18.10;99.90;;;;;;5077100;28;20532;-86
2022/09/09 09:33:23;;;;;;;0.10;0.10;;;18.00;99.90;;;;;;5049526;28;20441;-88
2022/09/09 09:35:50;;;;;;;0.10;0.10;;;17.90;99.90;;;;;;5061528;28;20448;-88
2022/09/09 09:38:19;;;;;;;0.10;0.10;;;18.10;99.90;;;;;;5051640;28;20481;-84
2022/09/09 09:40:51;;;;;;;0.10;0.10;;;18.30;99.90;;;;;;5053424;28;20458;-89
2022/09/09 09:43:25;;;;;;;0.10;0.10;;;18.40;99.90;;;;;;5060548;28;20451;-88
2022/09/09 09:45:50;;;;;;;0.10;0.10;;;18.40;99.90;;;;;;5063988;28;20448;-89
2022/09/09 09:48:16;;;;;;;0.10;0.10;;;18.20;99.90;;;;;;5072554;28;20769;-87
2022/09/09 09:50:55;;;;;;;0.10;0.10;;;18.10;99.90;;;;;;5068816;28;20182;-86
2022/09/09 09:53:28;;;;;;;0.10;0.10;;;18.30;99.90;;;;;;5069123;28;20182;-90
2022/09/09 09:56:03;;;;;;;0.10;0.10;;;18.50;99.90;;;;;;5072234;28;20459;-88
2022/09/09 09:58:44;;;;;;;0.10;0.10;;;18.80;99.90;;;;;;5071446;28;21088;-87
2022/09/09 10:01:29;;;;;;;0.10;0.10;;;19.10;99.90;;;;;;5068518;28;20443;-87
2022/09/09 10:04:00;;;;;;;0.10;0.10;;;19.20;99.90;;;;;;5073014;28;20502;-84
2022/09/09 10:06:37;;;;;;;0.10;0.10;;;19.10;99.90;;;;;;5068238;28;20444;-87
2022/09/09 10:09:18;;;;;;;0.10;0.10;;;19.40;99.90;;;;;;5072247;28;20522;-88
2022/09/09 10:12:01;;;;;;;0.10;0.10;;;19.40;99.90;;;;;;5067233;28;20440;-87
2022/09/09 10:14:41;;;;;;;0.10;0.10;;;19.20;99.90;;;;;;5066878;28;20479;-88
2022/09/09 10:17:46;;;;;;;0.10;0.00;;;19.00;99.90;;;;;;5067236;28;20525;-87
2022/09/09 10:20:54;;;;;;;0.10;0.00;;;19.20;99.90;;;;;;5059011;28;20487;-87
2022/09/09 10:23:51;;;;;;;0.10;0.00;;;20.90;99.90;;;;;;5058915;28;20448;-87
2022/09/09 10:26:37;;;;;;;0.10;0.10;;;20.80;99.90;;;;;;5068131;28;20496;-86
2022/09/09 10:29:34;;;;;;;0.10;0.10;;;21.60;99.90;;;;;;5066904;28;20602;-85
2022/09/09 10:32:12;;;;;;;0.10;0.00;;;21.50;99.90;;;;;;5065837;28;21052;-87
2022/09/09 10:35:02;;;;;;;0.10;0.00;;;21.40;99.90;;;;;;5066882;28;20440;-84
2022/09/09 10:37:55;;;;;;;0.10;0.10;;;21.60;99.90;;;;;;5066649;28;20503;-85
2022/09/09 10:40:21;;;;;;;0.10;0.10;;;21.80;99.90;;;;;;5064111;28;20505;-86
2022/09/09 10:42:46;;;;;;;0.10;0.00;;;22.30;99.90;;;;;;5065459;28;20443;-86
2022/09/09 10:45:18;;;;;;;0.10;0.00;;;23.00;99.90;;;;;;5071067;28;20193;-88
2022/09/09 10:48:03;;;;;;;0.10;0.00;;;23.60;99.90;;;;;;5069763;28;20554;-86
2022/09/09 10:50:44;;;;;;;0.10;0.00;;;24.10;99.90;;;;;;5062889;28;20455;-83
2022/09/09 10:53:33;;;;;;;0.10;0.00;;;23.90;99.90;;;;;;5071680;28;20428;-84
2022/09/09 10:56:07;;;;;;;0.10;0.00;;;23.50;99.90;;;;;;5067436;28;21106;-85
2022/09/09 10:58:46;;;;;;;0.10;0.00;;;23.00;99.90;;;;;;5085219;28;20483;-85
2022/09/09 11:01:27;;;;;;;0.10;0.00;;;22.50;99.90;;;;;;5068330;28;20493;-85
2022/09/09 11:03:58;;;;;;;0.10;0.00;;;22.00;99.90;;;;;;5066652;28;20452;-85
2022/09/09 11:06:29;;;;;;;0.10;0.00;;;22.00;99.90;;;;;;5069265;28;20463;-85
2022/09/09 11:08:57;;;;;;;0.10;0.00;;;21.70;99.90;;;;;;5067583;28;20444;-85
2022/09/09 11:11:39;;;;;;;0.00;0.00;;;22.00;99.90;;;;;;5066428;28;20535;-84
2022/09/09 11:14:08;;;;;;;0.03;0.00;;;21.90;99.90;;;;;;5070777;28;20527;-84
2022/09/09 11:16:44;;;;;;;0.10;0.00;;;21.90;99.90;;;;;;5063450;28;20748;-86
2022/09/09 11:19:35;;;;;;;0.10;0.00;;;22.40;99.90;;;;;;5066513;28;20458;-87
2022/09/09 11:22:14;;;;;;;0.10;0.00;;;23.50;99.90;;;;;;5069341;28;20458;-85
2022/09/09 11:24:45;;;;;;;0.10;0.00;;;23.70;99.90;;;;;;5070187;28;20464;-84
2022/09/09 11:27:22;;;;;;;0.10;0.00;;;23.50;99.90;;;;;;5066139;28;20452;-86
2022/09/09 11:30:12;;;;;;;0.10;0.00;;;23.50;99.90;;;;;;5073123;28;20479;-87
2022/09/09 11:33:08;;;;;;;0.10;0.00;;;24.30;99.90;;;;;;5062895;28;20524;-85
2022/09/09 11:35:46;;;;;;;0.10;0.00;;;25.40;99.90;;;;;;5063889;28;20460;-85
2022/09/09 11:38:20;;;;;;;0.10;0.00;;;26.20;99.90;;;;;;5065788;28;20491;-84
2022/09/09 11:40:47;;;;;;;0.10;0.00;;;26.40;99.90;;;;;;5065693;28;20436;-84
2022/09/09 11:43:21;;;;;;;0.10;0.00;;;27.00;99.90;;;;;;5071622;28;20444;-83
2022/09/09 11:45:55;;;;;;;0.10;0.00;;;26.70;99.90;;;;;;5068244;28;20464;-82
2022/09/09 11:48:26;;;;;;;0.10;0.00;;;27.40;99.90;;;;;;5068492;28;21247;-83
2022/09/09 11:51:10;;;;;;;0.10;0.00;;;27.70;99.90;;;;;;5070352;28;20432;-81
2022/09/09 11:53:49;;;;;;;0.10;0.00;;;27.10;99.90;;;;;;5068700;28;20483;-82
2022/09/09 11:56:28;;;;;;;0.10;0.00;;;26.20;99.90;;;;;;5069451;28;20454;-84
2022/09/09 11:59:19;;;;;;;0.10;0.00;;;24.50;99.90;;;;;;5066242;28;20486;-85
2022/09/09 12:01:49;;;;;;;0.10;0.00;;;25.00;99.90;;;;;;5066632;28;20436;-82
2022/09/09 12:04:17;;;;;;;0.10;0.00;;;26.20;99.90;;;;;;5070307;28;20440;-82
2022/09/09 12:06:52;;;;;;;0.10;0.00;;;27.00;99.90;;;;;;5069544;28;20456;-82
2022/09/09 12:09:24;;;;;;;0.10;0.00;;;27.60;99.90;;;;;;5060069;28;20870;-82
2022/09/09 12:11:50;;;;;;;0.10;0.00;;;27.60;99.90;;;;;;5067985;28;20885;-82
2022/09/09 12:14:43;;;;;;;0.10;0.00;;;26.80;99.90;;;;;;5068578;28;20455;-83
2022/09/09 12:17:14;;;;;;;0.10;0.00;;;26.50;99.90;;;;;;5059084;28;20467;-83
2022/09/09 12:19:40;;;;;;;0.10;0.00;;;25.30;99.90;;;;;;5067029;28;20447;-82
2022/09/09 12:22:26;;;;;;;0.10;0.00;;;25.70;99.90;;;;;;5069262;28;20442;-82
2022/09/09 12:25:30;;;;;;;0.10;0.00;;;26.10;99.90;;;;;;5068773;28;20193;-83
2022/09/09 12:28:15;;;;;;;0.10;0.00;;;25.20;99.90;;;;;;5067397;28;20455;-83
2022/09/09 12:30:46;;;;;;;0.10;0.00;;;24.40;99.90;;;;;;5069191;28;20472;-81
2022/09/09 12:33:16;;;;;;;0.10;0.00;;;23.70;99.90;;;;;;5060130;28;20452;-82
2022/09/09 12:35:44;;;;;;;0.10;0.00;;;23.10;99.90;;;;;;5063919;28;20465;-81
2022/09/09 12:38:22;;;;;;;0.10;0.00;;;22.90;99.90;;;;;;5065354;28;20484;-84
2022/09/09 12:40:56;;;;;;;0.10;0.00;;;22.40;99.90;;;;;;5068849;28;20555;-85
2022/09/09 12:43:23;;;;;;;0.10;0.00;;;22.30;99.90;;;;;;5062853;28;20453;-85
2022/09/09 12:45:57;;;;;;;0.10;0.00;;;22.40;99.90;;;;;;5066338;28;20461;-83
2022/09/09 12:48:36;;;;;;;0.10;0.00;;;22.40;99.90;;;;;;5066886;28;20447;-85
2022/09/09 12:51:05;;;;;;;0.10;0.00;;;24.00;99.90;;;;;;5077789;28;20439;-85
2022/09/09 12:53:35;;;;;;;0.10;0.00;;;25.50;99.90;;;;;;5069583;28;20440;-81
2022/09/09 12:56:06;;;;;;;0.10;0.00;;;27.10;99.90;;;;;;5068613;28;20549;-83
2022/09/09 12:58:32;;;;;;;0.10;0.00;;;27.80;99.90;;;;;;5058188;28;20919;-84
2022/09/09 13:00:59;;;;;;;0.10;0.00;;;27.30;99.90;;;;;;5062937;28;20525;-84
2022/09/09 13:03:26;;;;;;;0.10;0.00;;;26.00;99.90;;;;;;5064306;28;20495;-84
2022/09/09 13:05:53;;;;;;;0.10;0.00;;;24.70;99.90;;;;;;5068747;28;20444;-85
2022/09/09 13:08:21;;;;;;;0.10;0.00;;;24.30;99.90;;;;;;5065861;28;20967;-82
2022/09/09 13:10:54;;;;;;;0.10;0.00;;;23.70;99.90;;;;;;5070019;28;20419;-84
2022/09/09 13:13:23;;;;;;;0.10;0.00;;;23.10;99.90;;;;;;5068525;28;20424;-84
2022/09/09 13:15:52;;;;;;;0.10;0.00;;;22.60;99.90;;;;;;5063367;28;20931;-85
2022/09/09 13:18:22;;;;;;;0.10;0.00;;;22.70;99.90;;;;;;5063895;28;20480;-84